sensor_id;sensor_type;location;lat;lon;timestamp;P1;durP1;ratioP1;P2;durP2;ratioP2
74291;SDS011;62687;55.738;37.516;2023-06-05T00:02:13;3.88;;;1.50;;
74291;SDS011;62687;55.738;37.516;2023-06-05T00:04:57;4.13;;;1.73;;
74291;SDS011;62687;55.738;37.516;2023-06-05T00:07:41;5.35;;;1.83;;
74291;SDS011;62687;55.738;37.516;2023-06-05T00:10:24;7.82;;;1.73;;
74291;SDS011;62687;55.738;37.516;2023-06-05T00:13:08;3.08;;;1.60;;
74291;SDS011;62687;55.738;37.516;2023-06-05T00:15:53;5.53;;;2.00;;
74291;SDS011;62687;55.738;37.516;2023-06-05T00:18:37;4.28;;;1.70;;
74291;SDS011;62687;55.738;37.516;2023-06-05T00:21:21;6.30;;;2.00;;
74291;SDS011;62687;55.738;37.516;2023-06-05T00:24:06;6.03;;;1.85;;
74291;SDS011;62687;55.738;37.516;2023-06-05T00:26:50;4.93;;;1.88;;
74291;SDS011;62687;55.738;37.516;2023-06-05T00:29:34;7.20;;;1.70;;
74291;SDS011;62687;55.738;37.516;2023-06-05T00:32:18;8.60;;;1.88;;
74291;SDS011;62687;55.738;37.516;2023-06-05T00:35:02;4.18;;;1.90;;
74291;SDS011;62687;55.738;37.516;2023-06-05T00:37:47;4.97;;;1.75;;
74291;SDS011;62687;55.738;37.516;2023-06-05T00:40:31;4.97;;;1.80;;
74291;SDS011;62687;55.738;37.516;2023-06-05T00:43:15;4.13;;;1.60;;
74291;SDS011;62687;55.738;37.516;2023-06-05T00:46:00;4.63;;;1.60;;
74291;SDS011;62687;55.738;37.516;2023-06-05T00:48:46;3.45;;;1.75;;
74291;SDS011;62687;55.738;37.516;2023-06-05T00:51:32;8.10;;;1.70;;
74291;SDS011;62687;55.738;37.516;2023-06-05T00:54:16;5.72;;;2.20;;
74291;SDS011;62687;55.738;37.516;2023-06-05T00:57:01;3.45;;;1.48;;
74291;SDS011;62687;55.738;37.516;2023-06-05T00:59:46;4.22;;;1.48;;
74291;SDS011;62687;55.738;37.516;2023-06-05T01:02:29;2.42;;;1.40;;
74291;SDS011;62687;55.738;37.516;2023-06-05T01:05:13;2.65;;;1.33;;
74291;SDS011;62687;55.738;37.516;2023-06-05T01:07:58;4.97;;;1.33;;
74291;SDS011;62687;55.738;37.516;2023-06-05T01:10:46;3.25;;;1.55;;
74291;SDS011;62687;55.738;37.516;2023-06-05T01:13:30;6.53;;;1.35;;
74291;SDS011;62687;55.738;37.516;2023-06-05T01:16:15;3.30;;;1.63;;
74291;SDS011;62687;55.738;37.516;2023-06-05T01:19:00;3.67;;;1.55;;
74291;SDS011;62687;55.738;37.516;2023-06-05T01:21:47;3.10;;;1.55;;
74291;SDS011;62687;55.738;37.516;2023-06-05T01:24:31;7.03;;;1.70;;
74291;SDS011;62687;55.738;37.516;2023-06-05T01:27:34;6.93;;;1.85;;
74291;SDS011;62687;55.738;37.516;2023-06-05T01:30:24;5.32;;;2.13;;
74291;SDS011;62687;55.738;37.516;2023-06-05T01:33:16;4.18;;;1.60;;
74291;SDS011;62687;55.738;37.516;2023-06-05T01:36:03;4.97;;;1.73;;
74291;SDS011;62687;55.738;37.516;2023-06-05T01:38:48;6.35;;;1.60;;
74291;SDS011;62687;55.738;37.516;2023-06-05T01:41:33;7.93;;;2.15;;
74291;SDS011;62687;55.738;37.516;2023-06-05T01:44:18;3.35;;;1.95;;
74291;SDS011;62687;55.738;37.516;2023-06-05T01:47:02;6.35;;;1.75;;
74291;SDS011;62687;55.738;37.516;2023-06-05T01:49:47;4.10;;;1.77;;
74291;SDS011;62687;55.738;37.516;2023-06-05T01:52:31;4.32;;;1.65;;
74291;SDS011;62687;55.738;37.516;2023-06-05T01:55:19;7.40;;;1.90;;
74291;SDS011;62687;55.738;37.516;2023-06-05T01:58:07;4.38;;;1.85;;
74291;SDS011;62687;55.738;37.516;2023-06-05T02:00:51;5.35;;;1.77;;
74291;SDS011;62687;55.738;37.516;2023-06-05T02:03:36;6.82;;;2.20;;
74291;SDS011;62687;55.738;37.516;2023-06-05T02:06:20;4.53;;;1.73;;
74291;SDS011;62687;55.738;37.516;2023-06-05T02:09:04;7.78;;;1.92;;
74291;SDS011;62687;55.738;37.516;2023-06-05T02:11:48;8.88;;;2.15;;
74291;SDS011;62687;55.738;37.516;2023-06-05T02:14:33;5.30;;;1.92;;
74291;SDS011;62687;55.738;37.516;2023-06-05T02:17:20;6.20;;;2.08;;
74291;SDS011;62687;55.738;37.516;2023-06-05T02:20:04;6.63;;;2.45;;
74291;SDS011;62687;55.738;37.516;2023-06-05T02:22:49;5.30;;;2.08;;
74291;SDS011;62687;55.738;37.516;2023-06-05T02:25:35;8.32;;;2.15;;
74291;SDS011;62687;55.738;37.516;2023-06-05T02:28:19;5.03;;;2.25;;
74291;SDS011;62687;55.738;37.516;2023-06-05T02:31:04;3.78;;;1.85;;
74291;SDS011;62687;55.738;37.516;2023-06-05T02:33:48;3.97;;;2.40;;
74291;SDS011;62687;55.738;37.516;2023-06-05T02:36:32;5.90;;;2.42;;
74291;SDS011;62687;55.738;37.516;2023-06-05T02:39:16;6.20;;;2.53;;
74291;SDS011;62687;55.738;37.516;2023-06-05T02:42:01;5.63;;;2.92;;
74291;SDS011;62687;55.738;37.516;2023-06-05T02:44:45;5.05;;;2.83;;
74291;SDS011;62687;55.738;37.516;2023-06-05T02:47:29;6.88;;;2.90;;
74291;SDS011;62687;55.738;37.516;2023-06-05T02:50:13;10.32;;;3.15;;
74291;SDS011;62687;55.738;37.516;2023-06-05T02:52:57;6.10;;;3.13;;
74291;SDS011;62687;55.738;37.516;2023-06-05T02:55:41;7.22;;;2.60;;
74291;SDS011;62687;55.738;37.516;2023-06-05T02:58:25;6.60;;;3.17;;
74291;SDS011;62687;55.738;37.516;2023-06-05T03:01:11;8.18;;;3.03;;
74291;SDS011;62687;55.738;37.516;2023-06-05T03:03:55;6.75;;;2.38;;
74291;SDS011;62687;55.738;37.516;2023-06-05T03:06:40;9.80;;;3.03;;
74291;SDS011;62687;55.738;37.516;2023-06-05T03:09:27;9.15;;;3.47;;
74291;SDS011;62687;55.738;37.516;2023-06-05T03:12:11;6.10;;;3.10;;
74291;SDS011;62687;55.738;37.516;2023-06-05T03:14:55;4.88;;;3.22;;
74291;SDS011;62687;55.738;37.516;2023-06-05T03:17:39;11.57;;;3.10;;
74291;SDS011;62687;55.738;37.516;2023-06-05T03:20:23;7.50;;;3.30;;
74291;SDS011;62687;55.738;37.516;2023-06-05T03:23:09;7.13;;;2.83;;
74291;SDS011;62687;55.738;37.516;2023-06-05T03:25:53;8.13;;;2.58;;
74291;SDS011;62687;55.738;37.516;2023-06-05T03:28:37;5.82;;;2.47;;
74291;SDS011;62687;55.738;37.516;2023-06-05T03:31:22;5.78;;;2.00;;
74291;SDS011;62687;55.738;37.516;2023-06-05T03:34:06;8.02;;;2.08;;
74291;SDS011;62687;55.738;37.516;2023-06-05T03:36:50;3.90;;;1.83;;
74291;SDS011;62687;55.738;37.516;2023-06-05T03:39:35;5.13;;;1.75;;
74291;SDS011;62687;55.738;37.516;2023-06-05T03:42:19;6.20;;;1.92;;
74291;SDS011;62687;55.738;37.516;2023-06-05T03:45:03;3.28;;;1.42;;
74291;SDS011;62687;55.738;37.516;2023-06-05T03:47:47;5.65;;;2.00;;
74291;SDS011;62687;55.738;37.516;2023-06-05T03:50:32;6.47;;;2.35;;
74291;SDS011;62687;55.738;37.516;2023-06-05T03:53:17;4.78;;;1.73;;
74291;SDS011;62687;55.738;37.516;2023-06-05T03:56:02;3.80;;;1.70;;
74291;SDS011;62687;55.738;37.516;2023-06-05T03:58:47;5.25;;;2.13;;
74291;SDS011;62687;55.738;37.516;2023-06-05T04:01:32;3.50;;;1.77;;
74291;SDS011;62687;55.738;37.516;2023-06-05T04:04:17;4.20;;;1.42;;
74291;SDS011;62687;55.738;37.516;2023-06-05T04:07:01;3.58;;;1.52;;
74291;SDS011;62687;55.738;37.516;2023-06-05T04:09:45;3.53;;;1.63;;
74291;SDS011;62687;55.738;37.516;2023-06-05T04:12:29;6.63;;;2.55;;
74291;SDS011;62687;55.738;37.516;2023-06-05T04:15:13;5.75;;;1.65;;
74291;SDS011;62687;55.738;37.516;2023-06-05T04:17:57;5.38;;;2.42;;
74291;SDS011;62687;55.738;37.516;2023-06-05T04:20:41;4.35;;;2.00;;
74291;SDS011;62687;55.738;37.516;2023-06-05T04:23:25;3.00;;;1.45;;
74291;SDS011;62687;55.738;37.516;2023-06-05T04:26:09;4.20;;;1.90;;
74291;SDS011;62687;55.738;37.516;2023-06-05T04:28:53;4.28;;;1.55;;
74291;SDS011;62687;55.738;37.516;2023-06-05T04:31:43;7.63;;;2.13;;
74291;SDS011;62687;55.738;37.516;2023-06-05T04:34:27;5.82;;;2.22;;
74291;SDS011;62687;55.738;37.516;2023-06-05T04:37:11;6.15;;;1.95;;
74291;SDS011;62687;55.738;37.516;2023-06-05T04:39:55;5.90;;;2.42;;
74291;SDS011;62687;55.738;37.516;2023-06-05T04:42:39;5.90;;;2.38;;
74291;SDS011;62687;55.738;37.516;2023-06-05T04:45:23;8.30;;;2.28;;
74291;SDS011;62687;55.738;37.516;2023-06-05T04:48:08;6.68;;;2.53;;
74291;SDS011;62687;55.738;37.516;2023-06-05T04:50:52;6.90;;;2.05;;
74291;SDS011;62687;55.738;37.516;2023-06-05T04:53:37;5.68;;;1.85;;
74291;SDS011;62687;55.738;37.516;2023-06-05T04:56:21;7.45;;;2.45;;
74291;SDS011;62687;55.738;37.516;2023-06-05T04:59:05;4.38;;;2.10;;
74291;SDS011;62687;55.738;37.516;2023-06-05T05:01:49;7.90;;;2.20;;
74291;SDS011;62687;55.738;37.516;2023-06-05T05:07:17;3.85;;;1.80;;
74291;SDS011;62687;55.738;37.516;2023-06-05T05:10:02;5.88;;;2.17;;
74291;SDS011;62687;55.738;37.516;2023-06-05T05:12:46;6.35;;;1.92;;
74291;SDS011;62687;55.738;37.516;2023-06-05T05:15:30;5.22;;;2.53;;
74291;SDS011;62687;55.738;37.516;2023-06-05T05:18:14;6.28;;;2.22;;
74291;SDS011;62687;55.738;37.516;2023-06-05T05:21:00;4.22;;;2.90;;
74291;SDS011;62687;55.738;37.516;2023-06-05T05:23:43;4.25;;;2.08;;
74291;SDS011;62687;55.738;37.516;2023-06-05T05:26:27;5.50;;;2.03;;
74291;SDS011;62687;55.738;37.516;2023-06-05T05:29:11;8.30;;;2.33;;
74291;SDS011;62687;55.738;37.516;2023-06-05T05:31:55;4.85;;;2.28;;
74291;SDS011;62687;55.738;37.516;2023-06-05T05:34:39;4.15;;;2.10;;
74291;SDS011;62687;55.738;37.516;2023-06-05T05:37:24;3.90;;;2.03;;
74291;SDS011;62687;55.738;37.516;2023-06-05T05:40:09;8.25;;;1.90;;
74291;SDS011;62687;55.738;37.516;2023-06-05T05:42:54;4.50;;;1.90;;
74291;SDS011;62687;55.738;37.516;2023-06-05T05:45:38;8.32;;;2.70;;
74291;SDS011;62687;55.738;37.516;2023-06-05T05:48:23;5.43;;;2.17;;
74291;SDS011;62687;55.738;37.516;2023-06-05T05:51:07;12.00;;;2.60;;
74291;SDS011;62687;55.738;37.516;2023-06-05T05:53:51;5.22;;;2.22;;
74291;SDS011;62687;55.738;37.516;2023-06-05T05:56:35;4.70;;;2.70;;
74291;SDS011;62687;55.738;37.516;2023-06-05T05:59:20;7.93;;;2.53;;
74291;SDS011;62687;55.738;37.516;2023-06-05T06:02:04;7.72;;;2.70;;
74291;SDS011;62687;55.738;37.516;2023-06-05T06:04:52;4.55;;;2.33;;
74291;SDS011;62687;55.738;37.516;2023-06-05T06:07:36;4.22;;;2.10;;
74291;SDS011;62687;55.738;37.516;2023-06-05T06:10:20;5.40;;;2.05;;
74291;SDS011;62687;55.738;37.516;2023-06-05T06:13:04;4.82;;;2.00;;
74291;SDS011;62687;55.738;37.516;2023-06-05T06:15:49;7.03;;;2.83;;
74291;SDS011;62687;55.738;37.516;2023-06-05T06:18:33;4.50;;;2.53;;
74291;SDS011;62687;55.738;37.516;2023-06-05T06:21:17;7.03;;;2.10;;
74291;SDS011;62687;55.738;37.516;2023-06-05T06:24:02;3.60;;;2.10;;
74291;SDS011;62687;55.738;37.516;2023-06-05T06:26:48;4.15;;;1.75;;
74291;SDS011;62687;55.738;37.516;2023-06-05T06:29:32;6.90;;;2.42;;
74291;SDS011;62687;55.738;37.516;2023-06-05T06:32:16;5.85;;;2.50;;
74291;SDS011;62687;55.738;37.516;2023-06-05T06:35:01;6.85;;;2.50;;
74291;SDS011;62687;55.738;37.516;2023-06-05T06:37:45;9.13;;;3.22;;
74291;SDS011;62687;55.738;37.516;2023-06-05T06:40:28;6.20;;;2.03;;
74291;SDS011;62687;55.738;37.516;2023-06-05T06:43:13;6.25;;;1.67;;
74291;SDS011;62687;55.738;37.516;2023-06-05T06:45:57;6.43;;;1.90;;
74291;SDS011;62687;55.738;37.516;2023-06-05T06:48:41;5.38;;;2.30;;
74291;SDS011;62687;55.738;37.516;2023-06-05T06:51:25;5.72;;;2.33;;
74291;SDS011;62687;55.738;37.516;2023-06-05T06:54:09;6.53;;;2.58;;
74291;SDS011;62687;55.738;37.516;2023-06-05T06:56:53;5.00;;;2.20;;
74291;SDS011;62687;55.738;37.516;2023-06-05T06:59:36;5.97;;;2.05;;
74291;SDS011;62687;55.738;37.516;2023-06-05T07:02:22;5.07;;;1.77;;
74291;SDS011;62687;55.738;37.516;2023-06-05T07:05:07;5.38;;;1.45;;
74291;SDS011;62687;55.738;37.516;2023-06-05T07:07:51;6.72;;;1.88;;
74291;SDS011;62687;55.738;37.516;2023-06-05T07:10:36;3.60;;;2.17;;
74291;SDS011;62687;55.738;37.516;2023-06-05T07:13:20;4.75;;;2.20;;
74291;SDS011;62687;55.738;37.516;2023-06-05T07:16:04;3.80;;;1.55;;
74291;SDS011;62687;55.738;37.516;2023-06-05T07:18:48;7.13;;;2.05;;
74291;SDS011;62687;55.738;37.516;2023-06-05T07:21:34;6.10;;;1.60;;
74291;SDS011;62687;55.738;37.516;2023-06-05T07:24:21;9.40;;;1.60;;
74291;SDS011;62687;55.738;37.516;2023-06-05T07:27:07;3.78;;;1.35;;
74291;SDS011;62687;55.738;37.516;2023-06-05T07:29:51;6.78;;;1.42;;
74291;SDS011;62687;55.738;37.516;2023-06-05T07:35:20;3.25;;;0.85;;
74291;SDS011;62687;55.738;37.516;2023-06-05T07:38:14;2.50;;;0.98;;
74291;SDS011;62687;55.738;37.516;2023-06-05T07:41:16;4.07;;;1.20;;
74291;SDS011;62687;55.738;37.516;2023-06-05T07:44:00;3.38;;;1.05;;
74291;SDS011;62687;55.738;37.516;2023-06-05T07:46:45;5.68;;;1.38;;
74291;SDS011;62687;55.738;37.516;2023-06-05T07:49:30;4.70;;;1.30;;
74291;SDS011;62687;55.738;37.516;2023-06-05T07:52:15;3.22;;;1.27;;
74291;SDS011;62687;55.738;37.516;2023-06-05T07:54:59;5.20;;;1.55;;
74291;SDS011;62687;55.738;37.516;2023-06-05T07:57:44;5.82;;;1.27;;
74291;SDS011;62687;55.738;37.516;2023-06-05T08:00:28;5.32;;;1.77;;
74291;SDS011;62687;55.738;37.516;2023-06-05T08:03:15;5.38;;;1.65;;
74291;SDS011;62687;55.738;37.516;2023-06-05T08:06:05;4.20;;;1.27;;
74291;SDS011;62687;55.738;37.516;2023-06-05T08:08:52;5.47;;;1.50;;
74291;SDS011;62687;55.738;37.516;2023-06-05T08:11:37;9.25;;;1.63;;
74291;SDS011;62687;55.738;37.516;2023-06-05T08:14:21;4.03;;;1.48;;
74291;SDS011;62687;55.738;37.516;2023-06-05T08:17:05;12.82;;;1.90;;
74291;SDS011;62687;55.738;37.516;2023-06-05T08:19:49;4.18;;;1.13;;
74291;SDS011;62687;55.738;37.516;2023-06-05T08:22:33;4.25;;;1.67;;
74291;SDS011;62687;55.738;37.516;2023-06-05T08:25:16;6.57;;;1.20;;
74291;SDS011;62687;55.738;37.516;2023-06-05T08:28:00;12.05;;;1.70;;
74291;SDS011;62687;55.738;37.516;2023-06-05T08:30:44;7.43;;;1.52;;
74291;SDS011;62687;55.738;37.516;2023-06-05T08:33:28;5.25;;;0.90;;
74291;SDS011;62687;55.738;37.516;2023-06-05T08:36:12;2.53;;;1.00;;
74291;SDS011;62687;55.738;37.516;2023-06-05T08:38:56;2.63;;;1.17;;
74291;SDS011;62687;55.738;37.516;2023-06-05T08:41:40;2.80;;;0.95;;
74291;SDS011;62687;55.738;37.516;2023-06-05T08:47:09;7.47;;;1.30;;
74291;SDS011;62687;55.738;37.516;2023-06-05T08:49:53;5.75;;;1.10;;
74291;SDS011;62687;55.738;37.516;2023-06-05T08:52:38;2.72;;;0.95;;
74291;SDS011;62687;55.738;37.516;2023-06-05T08:55:22;3.08;;;1.10;;
74291;SDS011;62687;55.738;37.516;2023-06-05T08:58:06;2.88;;;0.68;;
74291;SDS011;62687;55.738;37.516;2023-06-05T09:00:50;3.80;;;1.00;;
74291;SDS011;62687;55.738;37.516;2023-06-05T09:06:19;5.63;;;0.90;;
74291;SDS011;62687;55.738;37.516;2023-06-05T09:09:04;3.72;;;1.20;;
74291;SDS011;62687;55.738;37.516;2023-06-05T09:11:47;3.42;;;1.10;;
74291;SDS011;62687;55.738;37.516;2023-06-05T09:14:44;11.90;;;1.27;;
74291;SDS011;62687;55.738;37.516;2023-06-05T09:17:28;5.18;;;1.38;;
74291;SDS011;62687;55.738;37.516;2023-06-05T09:20:22;2.63;;;0.95;;
74291;SDS011;62687;55.738;37.516;2023-06-05T09:23:25;12.63;;;2.13;;
74291;SDS011;62687;55.738;37.516;2023-06-05T09:26:12;6.72;;;1.60;;
74291;SDS011;62687;55.738;37.516;2023-06-05T09:28:58;7.60;;;1.40;;
74291;SDS011;62687;55.738;37.516;2023-06-05T09:31:44;4.25;;;1.02;;
74291;SDS011;62687;55.738;37.516;2023-06-05T09:34:32;3.42;;;1.25;;
74291;SDS011;62687;55.738;37.516;2023-06-05T09:37:16;4.85;;;1.10;;
74291;SDS011;62687;55.738;37.516;2023-06-05T09:40:00;3.45;;;1.02;;
74291;SDS011;62687;55.738;37.516;2023-06-05T09:42:44;5.30;;;1.13;;
74291;SDS011;62687;55.738;37.516;2023-06-05T09:45:43;4.82;;;1.33;;
74291;SDS011;62687;55.738;37.516;2023-06-05T09:48:27;3.30;;;1.27;;
74291;SDS011;62687;55.738;37.516;2023-06-05T09:51:14;4.03;;;1.15;;
74291;SDS011;62687;55.738;37.516;2023-06-05T09:53:59;6.43;;;1.48;;
74291;SDS011;62687;55.738;37.516;2023-06-05T09:56:46;5.00;;;1.52;;
74291;SDS011;62687;55.738;37.516;2023-06-05T09:59:35;4.47;;;1.27;;
74291;SDS011;62687;55.738;37.516;2023-06-05T10:02:20;1.77;;;0.73;;
74291;SDS011;62687;55.738;37.516;2023-06-05T10:07:48;2.90;;;1.00;;
74291;SDS011;62687;55.738;37.516;2023-06-05T10:10:37;3.33;;;1.38;;
74291;SDS011;62687;55.738;37.516;2023-06-05T10:13:21;3.70;;;1.20;;
74291;SDS011;62687;55.738;37.516;2023-06-05T10:16:05;4.50;;;1.55;;
74291;SDS011;62687;55.738;37.516;2023-06-05T10:18:49;6.28;;;1.48;;
74291;SDS011;62687;55.738;37.516;2023-06-05T10:21:33;3.58;;;1.00;;
74291;SDS011;62687;55.738;37.516;2023-06-05T10:24:22;3.88;;;1.30;;
74291;SDS011;62687;55.738;37.516;2023-06-05T10:29:59;4.18;;;1.67;;
74291;SDS011;62687;55.738;37.516;2023-06-05T10:38:38;3.00;;;1.05;;
74291;SDS011;62687;55.738;37.516;2023-06-05T10:41:23;5.00;;;1.00;;
74291;SDS011;62687;55.738;37.516;2023-06-05T10:44:07;8.40;;;1.02;;
74291;SDS011;62687;55.738;37.516;2023-06-05T10:46:51;4.80;;;1.48;;
74291;SDS011;62687;55.738;37.516;2023-06-05T10:49:34;3.63;;;1.55;;
74291;SDS011;62687;55.738;37.516;2023-06-05T10:52:37;6.57;;;1.98;;
74291;SDS011;62687;55.738;37.516;2023-06-05T10:55:21;7.32;;;1.85;;
74291;SDS011;62687;55.738;37.516;2023-06-05T10:58:07;2.95;;;1.48;;
74291;SDS011;62687;55.738;37.516;2023-06-05T11:06:40;4.75;;;1.35;;
74291;SDS011;62687;55.738;37.516;2023-06-05T11:15:39;3.92;;;1.10;;
74291;SDS011;62687;55.738;37.516;2023-06-05T11:18:28;5.28;;;1.02;;
74291;SDS011;62687;55.738;37.516;2023-06-05T11:21:12;1.77;;;0.80;;
74291;SDS011;62687;55.738;37.516;2023-06-05T11:24:15;2.58;;;0.80;;
74291;SDS011;62687;55.738;37.516;2023-06-05T11:27:03;2.80;;;1.27;;
74291;SDS011;62687;55.738;37.516;2023-06-05T11:29:47;5.15;;;1.20;;
74291;SDS011;62687;55.738;37.516;2023-06-05T11:32:32;4.70;;;1.05;;
74291;SDS011;62687;55.738;37.516;2023-06-05T11:35:18;5.38;;;1.00;;
74291;SDS011;62687;55.738;37.516;2023-06-05T11:40:51;5.22;;;1.30;;
74291;SDS011;62687;55.738;37.516;2023-06-05T11:43:41;4.38;;;1.17;;
74291;SDS011;62687;55.738;37.516;2023-06-05T11:46:35;4.03;;;1.15;;
74291;SDS011;62687;55.738;37.516;2023-06-05T11:49:24;5.03;;;1.30;;
74291;SDS011;62687;55.738;37.516;2023-06-05T11:52:16;4.75;;;1.52;;
74291;SDS011;62687;55.738;37.516;2023-06-05T11:55:11;5.95;;;1.55;;
74291;SDS011;62687;55.738;37.516;2023-06-05T11:57:56;4.93;;;1.23;;
74291;SDS011;62687;55.738;37.516;2023-06-05T12:00:40;5.43;;;2.75;;
74291;SDS011;62687;55.738;37.516;2023-06-05T12:03:24;2.90;;;1.40;;
74291;SDS011;62687;55.738;37.516;2023-06-05T12:06:12;6.93;;;1.50;;
74291;SDS011;62687;55.738;37.516;2023-06-05T12:09:09;4.85;;;1.25;;
74291;SDS011;62687;55.738;37.516;2023-06-05T12:12:06;3.42;;;1.60;;
74291;SDS011;62687;55.738;37.516;2023-06-05T12:14:51;3.00;;;1.10;;
74291;SDS011;62687;55.738;37.516;2023-06-05T12:17:38;3.72;;;0.88;;
74291;SDS011;62687;55.738;37.516;2023-06-05T12:20:22;4.63;;;1.33;;
74291;SDS011;62687;55.738;37.516;2023-06-05T12:23:06;2.55;;;1.00;;
74291;SDS011;62687;55.738;37.516;2023-06-05T12:26:00;5.63;;;1.20;;
74291;SDS011;62687;55.738;37.516;2023-06-05T12:28:47;5.35;;;1.50;;
74291;SDS011;62687;55.738;37.516;2023-06-05T12:31:32;5.10;;;1.05;;
74291;SDS011;62687;55.738;37.516;2023-06-05T12:34:17;4.00;;;1.17;;
74291;SDS011;62687;55.738;37.516;2023-06-05T12:37:01;2.00;;;0.95;;
74291;SDS011;62687;55.738;37.516;2023-06-05T12:39:46;2.28;;;1.00;;
74291;SDS011;62687;55.738;37.516;2023-06-05T12:42:33;2.65;;;1.20;;
74291;SDS011;62687;55.738;37.516;2023-06-05T12:45:19;3.55;;;1.20;;
74291;SDS011;62687;55.738;37.516;2023-06-05T12:48:03;3.15;;;1.20;;
74291;SDS011;62687;55.738;37.516;2023-06-05T12:50:47;2.90;;;1.02;;
74291;SDS011;62687;55.738;37.516;2023-06-05T12:53:32;7.78;;;2.65;;
74291;SDS011;62687;55.738;37.516;2023-06-05T12:56:16;7.25;;;1.23;;
74291;SDS011;62687;55.738;37.516;2023-06-05T12:59:00;6.68;;;1.48;;
74291;SDS011;62687;55.738;37.516;2023-06-05T13:01:44;3.72;;;1.10;;
74291;SDS011;62687;55.738;37.516;2023-06-05T13:04:29;2.35;;;0.98;;
74291;SDS011;62687;55.738;37.516;2023-06-05T13:07:14;6.22;;;1.80;;
74291;SDS011;62687;55.738;37.516;2023-06-05T13:10:00;1.90;;;0.88;;
74291;SDS011;62687;55.738;37.516;2023-06-05T13:12:44;7.95;;;1.45;;
74291;SDS011;62687;55.738;37.516;2023-06-05T13:15:28;10.55;;;1.67;;
74291;SDS011;62687;55.738;37.516;2023-06-05T13:18:12;5.00;;;1.15;;
74291;SDS011;62687;55.738;37.516;2023-06-05T13:20:56;7.68;;;2.10;;
74291;SDS011;62687;55.738;37.516;2023-06-05T13:23:40;4.60;;;1.00;;
74291;SDS011;62687;55.738;37.516;2023-06-05T13:26:24;7.63;;;1.15;;
74291;SDS011;62687;55.738;37.516;2023-06-05T13:29:09;6.32;;;1.38;;
74291;SDS011;62687;55.738;37.516;2023-06-05T13:31:54;3.47;;;1.02;;
74291;SDS011;62687;55.738;37.516;2023-06-05T13:34:37;2.75;;;1.20;;
74291;SDS011;62687;55.738;37.516;2023-06-05T13:37:21;5.43;;;1.45;;
74291;SDS011;62687;55.738;37.516;2023-06-05T13:40:05;2.00;;;0.68;;
74291;SDS011;62687;55.738;37.516;2023-06-05T13:42:50;3.33;;;1.27;;
74291;SDS011;62687;55.738;37.516;2023-06-05T13:45:35;5.05;;;1.13;;
74291;SDS011;62687;55.738;37.516;2023-06-05T13:48:19;5.97;;;0.90;;
74291;SDS011;62687;55.738;37.516;2023-06-05T13:51:03;3.30;;;0.90;;
74291;SDS011;62687;55.738;37.516;2023-06-05T13:53:48;3.97;;;1.23;;
74291;SDS011;62687;55.738;37.516;2023-06-05T13:56:32;3.70;;;1.10;;
74291;SDS011;62687;55.738;37.516;2023-06-05T13:59:16;2.15;;;0.85;;
74291;SDS011;62687;55.738;37.516;2023-06-05T14:01:59;6.18;;;1.30;;
74291;SDS011;62687;55.738;37.516;2023-06-05T14:04:43;5.82;;;1.73;;
74291;SDS011;62687;55.738;37.516;2023-06-05T14:07:27;7.80;;;1.48;;
74291;SDS011;62687;55.738;37.516;2023-06-05T14:10:11;5.88;;;1.40;;
74291;SDS011;62687;55.738;37.516;2023-06-05T14:12:56;2.78;;;1.10;;
74291;SDS011;62687;55.738;37.516;2023-06-05T14:15:39;2.47;;;1.17;;
74291;SDS011;62687;55.738;37.516;2023-06-05T14:18:24;5.18;;;1.17;;
74291;SDS011;62687;55.738;37.516;2023-06-05T14:21:09;5.97;;;1.27;;
74291;SDS011;62687;55.738;37.516;2023-06-05T14:23:53;4.38;;;1.20;;
74291;SDS011;62687;55.738;37.516;2023-06-05T14:26:37;4.10;;;1.10;;
74291;SDS011;62687;55.738;37.516;2023-06-05T14:29:21;3.08;;;1.08;;
74291;SDS011;62687;55.738;37.516;2023-06-05T14:32:05;5.15;;;1.60;;
74291;SDS011;62687;55.738;37.516;2023-06-05T14:34:49;6.63;;;1.38;;
74291;SDS011;62687;55.738;37.516;2023-06-05T14:37:33;3.95;;;1.10;;
74291;SDS011;62687;55.738;37.516;2023-06-05T14:40:17;6.03;;;1.20;;
74291;SDS011;62687;55.738;37.516;2023-06-05T14:43:01;3.60;;;1.33;;
74291;SDS011;62687;55.738;37.516;2023-06-05T14:45:45;4.85;;;1.58;;
74291;SDS011;62687;55.738;37.516;2023-06-05T14:48:29;2.88;;;1.00;;
74291;SDS011;62687;55.738;37.516;2023-06-05T14:51:13;6.88;;;1.30;;
74291;SDS011;62687;55.738;37.516;2023-06-05T14:53:57;7.22;;;1.30;;
74291;SDS011;62687;55.738;37.516;2023-06-05T14:56:42;3.90;;;1.35;;
74291;SDS011;62687;55.738;37.516;2023-06-05T14:59:26;5.70;;;1.30;;
74291;SDS011;62687;55.738;37.516;2023-06-05T15:02:10;7.32;;;1.25;;
74291;SDS011;62687;55.738;37.516;2023-06-05T15:04:54;2.88;;;1.10;;
74291;SDS011;62687;55.738;37.516;2023-06-05T15:07:40;4.40;;;1.13;;
74291;SDS011;62687;55.738;37.516;2023-06-05T15:10:25;3.97;;;1.52;;
74291;SDS011;62687;55.738;37.516;2023-06-05T15:13:10;10.85;;;3.70;;
74291;SDS011;62687;55.738;37.516;2023-06-05T15:15:54;5.53;;;2.47;;
74291;SDS011;62687;55.738;37.516;2023-06-05T15:18:38;6.55;;;2.83;;
74291;SDS011;62687;55.738;37.516;2023-06-05T15:21:22;7.45;;;1.50;;
74291;SDS011;62687;55.738;37.516;2023-06-05T15:24:06;5.88;;;1.30;;
74291;SDS011;62687;55.738;37.516;2023-06-05T15:26:50;4.40;;;1.25;;
74291;SDS011;62687;55.738;37.516;2023-06-05T15:29:35;5.97;;;1.60;;
74291;SDS011;62687;55.738;37.516;2023-06-05T15:32:19;11.43;;;2.78;;
74291;SDS011;62687;55.738;37.516;2023-06-05T15:35:04;8.90;;;1.98;;
74291;SDS011;62687;55.738;37.516;2023-06-05T15:37:47;4.20;;;1.27;;
74291;SDS011;62687;55.738;37.516;2023-06-05T15:40:31;7.78;;;1.42;;
74291;SDS011;62687;55.738;37.516;2023-06-05T15:43:15;6.75;;;1.70;;
74291;SDS011;62687;55.738;37.516;2023-06-05T15:46:00;4.75;;;1.10;;
74291;SDS011;62687;55.738;37.516;2023-06-05T15:48:43;6.15;;;1.50;;
74291;SDS011;62687;55.738;37.516;2023-06-05T15:51:28;5.68;;;1.35;;
74291;SDS011;62687;55.738;37.516;2023-06-05T15:54:12;4.47;;;1.30;;
74291;SDS011;62687;55.738;37.516;2023-06-05T15:57:08;5.32;;;1.45;;
74291;SDS011;62687;55.738;37.516;2023-06-05T15:59:52;5.22;;;1.60;;
74291;SDS011;62687;55.738;37.516;2023-06-05T16:02:37;4.57;;;1.90;;
74291;SDS011;62687;55.738;37.516;2023-06-05T16:05:21;4.28;;;2.08;;
74291;SDS011;62687;55.738;37.516;2023-06-05T16:08:06;5.38;;;2.25;;
74291;SDS011;62687;55.738;37.516;2023-06-05T16:10:50;3.33;;;1.05;;
74291;SDS011;62687;55.738;37.516;2023-06-05T16:13:35;5.65;;;1.30;;
74291;SDS011;62687;55.738;37.516;2023-06-05T16:16:19;3.55;;;1.23;;
74291;SDS011;62687;55.738;37.516;2023-06-05T16:21:48;4.72;;;1.60;;
74291;SDS011;62687;55.738;37.516;2023-06-05T16:24:32;3.65;;;1.20;;
74291;SDS011;62687;55.738;37.516;2023-06-05T16:30:02;5.85;;;1.20;;
74291;SDS011;62687;55.738;37.516;2023-06-05T16:32:47;5.45;;;2.17;;
74291;SDS011;62687;55.738;37.516;2023-06-05T16:35:32;8.38;;;2.50;;
74291;SDS011;62687;55.738;37.516;2023-06-05T16:38:16;7.05;;;1.75;;
74291;SDS011;62687;55.738;37.516;2023-06-05T16:41:00;9.18;;;1.42;;
74291;SDS011;62687;55.738;37.516;2023-06-05T16:43:44;5.47;;;1.33;;
74291;SDS011;62687;55.738;37.516;2023-06-05T16:46:28;4.57;;;1.70;;
74291;SDS011;62687;55.738;37.516;2023-06-05T16:49:12;5.03;;;1.60;;
74291;SDS011;62687;55.738;37.516;2023-06-05T16:51:56;6.18;;;1.98;;
74291;SDS011;62687;55.738;37.516;2023-06-05T16:54:40;9.40;;;1.80;;
74291;SDS011;62687;55.738;37.516;2023-06-05T16:57:24;4.25;;;1.42;;
74291;SDS011;62687;55.738;37.516;2023-06-05T17:00:08;6.50;;;1.85;;
74291;SDS011;62687;55.738;37.516;2023-06-05T17:02:52;6.65;;;2.00;;